Time;durP1;ratioP1;P1;durP2;ratioP2;P2;SDS_P1;SDS_P2;PMS_P1;PMS_P2;Temp;Humidity;BMP_temperature;BMP_pressure;BME280_temperature;BME280_humidity;BME280_pressure;Samples;Min_cycle;Max_cycle;Signal;HPM_P1;HPM_P2
2022/06/01 00:02:02;;;;;;;32.92;19.38;;;11.40;99.90;;;;;;5094221;28;20090;-78
2022/06/01 00:04:28;;;;;;;33.80;19.75;;;11.40;99.90;;;;;;5092049;28;20083;-76
2022/06/01 00:06:56;;;;;;;36.65;19.48;;;11.40;99.90;;;;;;5111241;28;20048;-77
2022/06/01 00:09:22;;;;;;;33.13;18.67;;;11.40;99.90;;;;;;5111840;28;20135;-77
2022/06/01 00:11:47;;;;;;;33.55;19.50;;;11.40;99.90;;;;;;5094864;28;20134;-78
2022/06/01 00:14:14;;;;;;;32.97;18.38;;;11.40;99.90;;;;;;5094241;28;20055;-77
2022/06/01 00:16:39;;;;;;;31.55;19.88;;;11.40;99.90;;;;;;5075791;28;20141;-78
2022/06/01 00:19:07;;;;;;;33.38;19.38;;;11.40;99.90;;;;;;5077123;28;20051;-77
2022/06/01 00:22:11;;;;;;;34.38;19.95;;;11.40;99.90;;;;;;5061528;28;20044;-78
2022/06/01 00:24:22;;;;;;;32.97;19.65;;;11.30;99.90;;;;;;5094685;28;20400;-76
2022/06/01 00:26:50;;;;;;;34.60;20.13;;;11.30;99.90;;;;;;5094854;28;20051;-77
2022/06/01 00:29:16;;;;;;;37.80;20.80;;;11.30;99.90;;;;;;5060287;28;20048;-78
2022/06/01 00:31:41;;;;;;;34.75;20.17;;;11.30;99.90;;;;;;5092647;28;20440;-77
2022/06/01 00:34:07;;;;;;;33.20;19.75;;;11.20;99.90;;;;;;5111813;28;20044;-77
2022/06/01 00:36:33;;;;;;;33.40;19.08;;;11.20;99.90;;;;;;5097026;28;20089;-75
2022/06/01 00:39:00;;;;;;;33.33;19.77;;;11.10;99.90;;;;;;5095434;28;20147;-77
2022/06/01 00:41:29;;;;;;;34.10;20.38;;;11.10;99.90;;;;;;5079371;28;20047;-77
2022/06/01 00:43:55;;;;;;;35.72;19.75;;;11.10;99.90;;;;;;5079953;28;20048;-77
2022/06/01 00:46:21;;;;;;;34.33;20.17;;;11.10;99.90;;;;;;5096108;28;20047;-77
2022/06/01 00:48:52;;;;;;;34.90;19.77;;;11.10;99.90;;;;;;5095714;28;20048;-77
2022/06/01 00:51:24;;;;;;;34.80;20.67;;;11.10;99.90;;;;;;5079381;28;20048;-77
2022/06/01 00:53:53;;;;;;;30.90;18.70;;;11.10;99.90;;;;;;5097984;28;20048;-77
2022/06/01 00:56:42;;;;;;;33.67;19.27;;;11.10;99.90;;;;;;5079101;28;20040;-76
2022/06/01 00:59:12;;;;;;;33.00;19.45;;;11.10;99.90;;;;;;5096474;28;20056;-76
2022/06/01 01:01:44;;;;;;;31.10;18.98;;;11.10;99.90;;;;;;5095768;28;20040;-77
2022/06/01 01:04:10;;;;;;;34.08;18.88;;;11.10;99.90;;;;;;5096266;28;20087;-76
2022/06/01 01:06:39;;;;;;;34.70;19.20;;;11.10;99.90;;;;;;5095916;28;20059;-76
2022/06/01 01:09:06;;;;;;;33.33;20.42;;;11.10;99.90;;;;;;5078868;28;20055;-77
2022/06/01 01:11:39;;;;;;;32.22;19.80;;;11.10;99.90;;;;;;5097302;28;20055;-76
2022/06/01 01:14:08;;;;;;;32.80;19.40;;;11.10;99.90;;;;;;5096791;28;20048;-77
2022/06/01 01:16:35;;;;;;;33.53;19.52;;;11.10;99.90;;;;;;5112700;28;20048;-77
2022/06/01 01:19:06;;;;;;;34.83;19.77;;;11.20;99.90;;;;;;5097190;28;20133;-77
2022/06/01 01:22:13;;;;;;;36.08;19.98;;;11.20;99.90;;;;;;5097179;28;20056;-78
2022/06/01 01:25:04;;;;;;;30.63;18.98;;;11.20;99.90;;;;;;5096686;28;20063;-75
2022/06/01 01:27:30;;;;;;;31.25;19.33;;;11.20;99.90;;;;;;5086802;28;20128;-77
2022/06/01 01:29:56;;;;;;;30.07;18.50;;;11.20;99.90;;;;;;5096751;28;20048;-76
2022/06/01 01:32:22;;;;;;;33.63;19.20;;;11.20;99.90;;;;;;5096753;28;20189;-77
2022/06/01 01:34:48;;;;;;;32.30;19.80;;;11.20;99.90;;;;;;5079575;28;20048;-77
2022/06/01 01:37:19;;;;;;;35.35;21.08;;;11.20;99.90;;;;;;5096414;28;20392;-76
2022/06/01 01:39:45;;;;;;;33.95;19.80;;;11.20;99.90;;;;;;5095260;28;20056;-78
2022/06/01 01:42:10;;;;;;;32.85;19.52;;;11.20;99.90;;;;;;5078367;28;20369;-78
2022/06/01 01:44:40;;;;;;;31.98;19.75;;;11.20;99.90;;;;;;5094827;28;20040;-77
2022/06/01 01:47:07;;;;;;;31.55;19.42;;;11.20;99.90;;;;;;5095118;28;20040;-77
2022/06/01 01:49:34;;;;;;;33.00;19.27;;;11.20;99.90;;;;;;5095498;28;20123;-77
2022/06/01 01:52:03;;;;;;;33.88;19.58;;;11.20;99.90;;;;;;5094835;28;20452;-78
2022/06/01 01:55:00;;;;;;;31.55;18.85;;;11.20;99.90;;;;;;5096178;28;20052;-77
2022/06/01 01:57:37;;;;;;;31.08;18.30;;;11.20;99.90;;;;;;5096637;28;20044;-76
2022/06/01 02:00:09;;;;;;;29.52;18.48;;;11.20;99.90;;;;;;5112570;28;20048;-77
2022/06/01 02:03:02;;;;;;;31.00;18.90;;;11.20;99.90;;;;;;5094866;28;20048;-77
2022/06/01 02:08:25;;;;;;;35.28;18.15;;;11.20;99.90;;;;;;5095145;28;20048;-77
2022/06/01 02:13:42;;;;;;;31.95;17.85;;;11.20;99.90;;;;;;5093951;28;20048;-77
2022/06/01 02:16:08;;;;;;;31.17;17.92;;;11.20;99.90;;;;;;5093250;28;20121;-76
2022/06/01 02:18:41;;;;;;;30.42;17.38;;;11.20;99.90;;;;;;5093173;28;20091;-77
2022/06/01 02:21:18;;;;;;;28.77;18.70;;;11.20;99.90;;;;;;5094274;28;20119;-76
2022/06/01 02:23:44;;;;;;;28.80;18.77;;;11.20;99.90;;;;;;5095526;28;20137;-75
2022/06/01 02:26:10;;;;;;;29.73;18.58;;;11.20;99.90;;;;;;5094530;28;20464;-77
2022/06/01 02:28:41;;;;;;;31.98;18.40;;;11.20;99.90;;;;;;5076741;28;20046;-76
2022/06/01 02:31:08;;;;;;;31.30;18.33;;;11.10;99.90;;;;;;5093469;28;20036;-76
2022/06/01 02:33:35;;;;;;;32.75;19.45;;;11.20;99.90;;;;;;5095233;28;20048;-75
2022/06/01 02:36:04;;;;;;;33.25;18.40;;;11.20;99.90;;;;;;5094352;28;20100;-76
2022/06/01 02:38:40;;;;;;;32.70;19.08;;;11.20;99.90;;;;;;5093430;28;20050;-76
2022/06/01 02:42:25;;;;;;;33.70;19.63;;;11.20;99.90;;;;;;5093737;28;20075;-75
2022/06/01 02:43:52;;;;;;;34.10;19.85;;;11.20;99.90;;;;;;5094841;28;20056;-78
2022/06/01 02:46:18;;;;;;;30.27;19.20;;;11.10;99.90;;;;;;5093253;28;20395;-75
2022/06/01 02:48:45;;;;;;;31.58;19.77;;;11.10;99.90;;;;;;5094778;28;20044;-75
2022/06/01 02:51:12;;;;;;;30.95;18.95;;;11.10;99.90;;;;;;5076808;28;20047;-75
2022/06/01 02:53:38;;;;;;;28.33;17.65;;;11.10;99.90;;;;;;5094469;28;20044;-77
2022/06/01 02:56:05;;;;;;;30.75;17.60;;;11.10;99.90;;;;;;5092485;28;20036;-77
2022/06/01 02:58:31;;;;;;;29.70;17.60;;;11.10;99.90;;;;;;5093755;28;20048;-76
2022/06/01 03:00:58;;;;;;;28.85;17.48;;;11.00;99.90;;;;;;5094222;28;20123;-75
2022/06/01 03:03:25;;;;;;;28.30;18.00;;;11.00;99.90;;;;;;5092915;28;20101;-75
2022/06/01 03:05:51;;;;;;;28.80;18.37;;;11.00;99.90;;;;;;5094716;28;20082;-75
2022/06/01 03:08:16;;;;;;;31.75;18.15;;;11.00;99.90;;;;;;5093215;28;20440;-76
2022/06/01 03:10:44;;;;;;;30.42;18.88;;;11.00;99.90;;;;;;5093385;28;20449;-75
2022/06/01 03:13:10;;;;;;;30.50;19.08;;;11.00;99.90;;;;;;5094250;28;20123;-75
2022/06/01 03:15:37;;;;;;;29.77;18.73;;;11.00;99.90;;;;;;5093239;28;20084;-75
2022/06/01 03:18:03;;;;;;;30.43;19.00;;;11.00;99.90;;;;;;5095839;28;20390;-75
2022/06/01 03:20:29;;;;;;;30.85;18.73;;;11.00;99.90;;;;;;5095167;28;20051;-75
2022/06/01 03:22:57;;;;;;;32.40;19.02;;;10.90;99.90;;;;;;5094359;28;20131;-74
2022/06/01 03:25:24;;;;;;;33.22;19.77;;;10.90;99.90;;;;;;5094291;28;20487;-75
2022/06/01 03:27:51;;;;;;;33.13;19.63;;;10.90;99.90;;;;;;5093669;28;20063;-76
2022/06/01 03:30:18;;;;;;;35.08;19.92;;;10.90;99.90;;;;;;5094409;28;20285;-76
2022/06/01 03:32:45;;;;;;;34.45;20.10;;;10.90;99.90;;;;;;5093946;28;20053;-75
2022/06/01 03:35:13;;;;;;;31.38;19.48;;;10.90;99.90;;;;;;5092537;28;20089;-76
2022/06/01 03:37:39;;;;;;;35.88;20.42;;;10.90;99.90;;;;;;5093033;28;20048;-75
2022/06/01 03:40:05;;;;;;;34.70;20.98;;;11.00;99.90;;;;;;5094439;28;20554;-74
2022/06/01 03:42:32;;;;;;;36.03;21.65;;;10.90;99.90;;;;;;5092714;28;20059;-76
2022/06/01 03:47:43;;;;;;;43.28;22.90;;;10.90;99.90;;;;;;5094142;28;20051;-74
2022/06/01 03:50:09;;;;;;;38.80;22.45;;;11.00;99.90;;;;;;5095185;28;20048;-75
2022/06/01 03:52:35;;;;;;;41.67;24.38;;;11.00;99.90;;;;;;5094977;28;20059;-75
2022/06/01 03:55:01;;;;;;;42.42;24.95;;;11.00;99.90;;;;;;5094606;28;20477;-75
2022/06/01 03:57:27;;;;;;;42.08;23.92;;;11.00;99.90;;;;;;5108954;28;20551;-75
2022/06/01 03:59:53;;;;;;;45.95;25.98;;;11.00;99.90;;;;;;5109306;28;20063;-74
2022/06/01 04:02:18;;;;;;;42.67;24.80;;;11.00;99.90;;;;;;5093416;28;20044;-76
2022/06/01 04:04:44;;;;;;;43.42;25.08;;;10.90;99.90;;;;;;5093706;28;20048;-76
2022/06/01 04:07:10;;;;;;;42.00;24.75;;;11.00;99.90;;;;;;5094054;28;20084;-76
2022/06/01 04:09:36;;;;;;;40.45;23.90;;;10.90;99.90;;;;;;5098879;28;20399;-75
2022/06/01 04:12:02;;;;;;;43.05;25.50;;;11.00;99.90;;;;;;5097415;28;20044;-76
2022/06/01 04:14:27;;;;;;;45.67;24.30;;;11.00;99.90;;;;;;5097642;28;20055;-75
2022/06/01 04:16:53;;;;;;;45.80;25.17;;;11.00;99.90;;;;;;5096184;28;20059;-76
2022/06/01 04:19:19;;;;;;;43.30;25.10;;;11.00;99.90;;;;;;5097608;28;20044;-76
2022/06/01 04:21:48;;;;;;;47.63;25.98;;;11.00;99.90;;;;;;5096673;28;20047;-76
2022/06/01 04:24:16;;;;;;;45.78;25.33;;;11.00;99.90;;;;;;5098144;28;20044;-75
2022/06/01 04:26:47;;;;;;;44.75;24.88;;;11.00;99.90;;;;;;5097646;28;20048;-75
2022/06/01 04:29:15;;;;;;;43.55;24.90;;;11.00;99.90;;;;;;5097069;28;20051;-76
2022/06/01 04:31:41;;;;;;;46.03;25.85;;;11.00;99.90;;;;;;5097293;28;20044;-75
2022/06/01 04:34:09;;;;;;;43.35;24.88;;;11.00;99.90;;;;;;5097205;28;20048;-76
2022/06/01 04:36:34;;;;;;;;;;;11.00;99.90;;;;;;5079828;28;20054;-76
2022/06/01 04:39:00;;;;;;;43.23;24.27;;;11.10;99.90;;;;;;5096582;28;20427;-75
2022/06/01 04:41:26;;;;;;;43.80;25.13;;;11.10;99.90;;;;;;5096676;28;20040;-75
2022/06/01 04:43:51;;;;;;;45.75;25.95;;;11.10;99.90;;;;;;5096987;28;20044;-74
2022/06/01 04:46:17;;;;;;;42.40;25.33;;;11.10;99.90;;;;;;5113503;28;20040;-76
2022/06/01 04:48:43;;;;;;;44.58;24.85;;;11.20;99.90;;;;;;5114212;28;20080;-75
2022/06/01 04:51:09;;;;;;;42.90;25.17;;;11.20;99.90;;;;;;5095497;28;20375;-76
2022/06/01 04:53:35;;;;;;;42.08;24.35;;;11.30;99.90;;;;;;5112701;28;20044;-77
2022/06/01 04:56:00;;;;;;;44.83;24.85;;;11.40;99.90;;;;;;5112938;28;20055;-75
2022/06/01 04:58:26;;;;;;;41.05;23.73;;;11.50;99.90;;;;;;5096135;28;20071;-76
2022/06/01 05:00:52;;;;;;;43.75;25.40;;;11.50;99.90;;;;;;5097265;28;20036;-75
2022/06/01 05:03:18;;;;;;;46.03;26.55;;;11.50;99.90;;;;;;5097250;28;20113;-77
2022/06/01 05:05:43;;;;;;;43.22;25.00;;;11.50;99.90;;;;;;5095731;28;20051;-76
2022/06/01 05:08:11;;;;;;;49.17;26.95;;;11.50;99.90;;;;;;5096275;28;20111;-75
2022/06/01 05:10:38;;;;;;;46.08;25.88;;;11.50;99.90;;;;;;5097490;28;20046;-76
2022/06/01 05:13:04;;;;;;;45.80;25.85;;;11.60;99.90;;;;;;5097222;28;20066;-76
2022/06/01 05:15:30;;;;;;;41.58;24.80;;;11.60;99.90;;;;;;5096772;28;20127;-76
2022/06/01 05:17:56;;;;;;;42.97;24.10;;;11.70;99.90;;;;;;5097306;28;20062;-77
2022/06/01 05:20:21;;;;;;;43.17;23.98;;;11.80;99.90;;;;;;5112416;28;20090;-77
2022/06/01 05:22:47;;;;;;;41.28;24.08;;;11.90;99.90;;;;;;5096916;28;20044;-76
2022/06/01 05:25:13;;;;;;;43.38;24.27;;;11.90;99.90;;;;;;5095940;28;20384;-77
2022/06/01 05:27:39;;;;;;;37.83;21.45;;;11.90;99.90;;;;;;5112840;28;20128;-78
2022/06/01 05:30:05;;;;;;;43.70;25.27;;;12.10;99.90;;;;;;5078630;28;20052;-75
2022/06/01 05:32:31;;;;;;;43.83;24.27;;;12.10;99.90;;;;;;5097088;28;20090;-76
2022/06/01 05:34:58;;;;;;;46.05;24.90;;;12.10;99.90;;;;;;5095557;28;20051;-76
2022/06/01 05:37:24;;;;;;;45.13;24.42;;;12.20;99.90;;;;;;5094563;28;20399;-78
2022/06/01 05:39:49;;;;;;;45.63;24.42;;;12.20;99.90;;;;;;5095287;28;20040;-77
2022/06/01 05:42:16;;;;;;;42.63;24.52;;;12.30;99.90;;;;;;5095008;28;20048;-77
2022/06/01 05:44:41;;;;;;;45.83;24.73;;;12.30;99.90;;;;;;5096750;28;20048;-76
2022/06/01 05:47:07;;;;;;;43.70;24.27;;;12.40;99.90;;;;;;5096575;28;20130;-77
2022/06/01 05:49:33;;;;;;;41.38;23.85;;;12.60;99.90;;;;;;5095319;28;20086;-79
2022/06/01 05:51:59;;;;;;;39.53;21.00;;;12.60;99.90;;;;;;5095925;28;20048;-78
2022/06/01 05:54:25;;;;;;;35.10;20.10;;;12.60;99.90;;;;;;5095655;28;20051;-78
2022/06/01 05:56:50;;;;;;;37.28;21.25;;;12.50;99.90;;;;;;5094804;28;20123;-77
2022/06/01 05:59:16;;;;;;;37.53;21.02;;;12.50;99.90;;;;;;5111095;28;20052;-77
2022/06/01 06:01:43;;;;;;;39.93;23.03;;;12.40;99.90;;;;;;5096103;28;20047;-78
2022/06/01 06:04:08;;;;;;;36.70;19.75;;;12.30;99.90;;;;;;5094411;28;20434;-76
2022/06/01 06:06:35;;;;;;;38.30;21.38;;;12.30;99.90;;;;;;5095430;28;20040;-75
2022/06/01 06:09:05;;;;;;;37.63;20.40;;;12.20;99.90;;;;;;5095229;28;20048;-78
2022/06/01 06:11:36;;;;;;;33.60;20.15;;;12.10;99.90;;;;;;5095287;28;20048;-77
2022/06/01 06:14:03;;;;;;;36.90;20.48;;;12.20;99.90;;;;;;5111333;28;20051;-77
2022/06/01 06:16:34;;;;;;;36.50;20.48;;;12.10;99.90;;;;;;5094654;28;20046;-77
2022/06/01 06:19:01;;;;;;;36.30;20.27;;;12.20;99.90;;;;;;5094041;28;20059;-77
2022/06/01 06:21:29;;;;;;;34.85;19.25;;;12.20;99.90;;;;;;5095829;28;20102;-76
2022/06/01 06:24:04;;;;;;;34.25;19.08;;;12.30;99.90;;;;;;5077698;28;20087;-78
2022/06/01 06:26:31;;;;;;;32.75;18.73;;;12.30;99.90;;;;;;5094351;28;20044;-78
2022/06/01 06:28:57;;;;;;;29.13;17.85;;;12.50;99.90;;;;;;5094213;28;20054;-77
2022/06/01 06:31:23;;;;;;;31.60;17.98;;;12.70;99.90;;;;;;5076989;28;20044;-77
2022/06/01 06:33:49;;;;;;;28.70;16.37;;;12.90;99.90;;;;;;5094978;28;20055;-77
2022/06/01 06:36:14;;;;;;;31.33;17.95;;;13.10;99.90;;;;;;5093441;28;20043;-77
2022/06/01 06:38:41;;;;;;;31.80;17.85;;;13.30;99.90;;;;;;5094789;28;20090;-77
2022/06/01 06:41:10;;;;;;;28.80;16.40;;;13.40;99.90;;;;;;5079762;28;20070;-77
2022/06/01 06:43:37;;;;;;;23.40;13.23;;;13.60;99.90;;;;;;5099531;28;20074;-78
2022/06/01 06:46:07;;;;;;;23.17;13.52;;;13.70;99.90;;;;;;5097782;28;20055;-77
2022/06/01 06:48:32;;;;;;;22.23;12.93;;;13.80;99.90;;;;;;5094775;28;20082;-78
2022/06/01 06:50:59;;;;;;;21.98;13.13;;;13.80;99.90;;;;;;5095051;28;20142;-77
2022/06/01 06:53:25;;;;;;;20.05;12.63;;;13.70;99.90;;;;;;5093795;28;20051;-76
2022/06/01 06:55:51;;;;;;;26.05;15.25;;;13.70;99.90;;;;;;5094582;28;20056;-78
2022/06/01 06:58:18;;;;;;;26.98;15.40;;;13.70;99.90;;;;;;5098428;28;20089;-78
2022/06/01 07:00:44;;;;;;;24.40;14.30;;;13.80;99.90;;;;;;5116911;28;20052;-77
2022/06/01 07:03:10;;;;;;;22.30;13.40;;;13.70;99.90;;;;;;5098547;28;20054;-78
2022/06/01 07:08:20;;;;;;;22.65;13.25;;;13.80;99.90;;;;;;5093821;28;20091;-77
2022/06/01 07:10:46;;;;;;;23.38;12.55;;;13.90;99.90;;;;;;5093607;28;20071;-77
2022/06/01 07:13:12;;;;;;;22.45;13.95;;;14.20;99.90;;;;;;5076288;28;20044;-78
2022/06/01 07:15:38;;;;;;;18.83;11.10;;;14.50;99.90;;;;;;5109707;28;20055;-78
2022/06/01 07:18:05;;;;;;;18.15;10.85;;;14.60;99.90;;;;;;5092958;28;20094;-77
2022/06/01 07:20:32;;;;;;;19.23;11.20;;;15.00;99.90;;;;;;5092568;28;20044;-78
2022/06/01 07:22:59;;;;;;;17.67;10.95;;;15.00;99.90;;;;;;5092241;28;20097;-78
2022/06/01 07:25:27;;;;;;;18.48;11.43;;;15.30;99.90;;;;;;5109484;28;20090;-78
2022/06/01 07:27:54;;;;;;;16.42;10.27;;;15.50;99.90;;;;;;5093302;28;20395;-77
2022/06/01 07:30:20;;;;;;;16.67;11.02;;;15.60;99.90;;;;;;5093634;28;20059;-75
2022/06/01 07:32:49;;;;;;;18.27;11.43;;;15.40;99.90;;;;;;5093787;28;20048;-78
2022/06/01 07:35:16;;;;;;;18.08;10.98;;;14.90;99.90;;;;;;5095066;28;20047;-78
2022/06/01 07:43:15;;;;;;;18.40;10.70;;;14.50;99.90;;;;;;5094496;28;20144;-78
2022/06/01 07:45:48;;;;;;;19.70;12.13;;;14.40;99.90;;;;;;5096219;28;20036;-78
2022/06/01 07:48:14;;;;;;;;;;;14.50;99.90;;;;;;5097239;28;20074;-76
2022/06/01 07:50:40;;;;;;;18.02;11.02;;;14.60;99.90;;;;;;5096040;28;19930;-76
2022/06/01 07:53:08;;;;;;;21.43;11.80;;;14.80;99.90;;;;;;5099708;28;20044;-79
2022/06/01 07:55:35;;;;;;;17.20;10.57;;;15.30;99.90;;;;;;5103332;28;20075;-76
2022/06/01 07:58:01;;;;;;;19.30;11.57;;;15.60;99.90;;;;;;5085243;28;20044;-75
2022/06/01 08:00:31;;;;;;;16.02;9.85;;;16.00;99.90;;;;;;5099864;28;20093;-77
2022/06/01 08:02:57;;;;;;;14.70;9.95;;;16.20;99.90;;;;;;5100103;28;20117;-77
2022/06/01 08:05:23;;;;;;;15.00;9.35;;;16.50;99.90;;;;;;5096705;28;20098;-80
2022/06/01 08:07:49;;;;;;;19.57;9.17;;;16.30;99.90;;;;;;5098455;28;20048;-77
2022/06/01 08:10:18;;;;;;;14.30;8.93;;;16.10;99.90;;;;;;5096065;28;20116;-78
2022/06/01 08:15:29;;;;;;;15.00;9.25;;;14.70;99.90;;;;;;5093455;28;20139;-77
2022/06/01 08:17:57;;;;;;;11.75;5.43;;;13.40;99.90;;;;;;5094015;28;20060;-76
2022/06/01 08:20:23;;;;;;;9.43;4.43;;;13.30;99.90;;;;;;5095763;28;20048;-75
2022/06/01 08:22:49;;;;;;;5.93;2.80;;;13.00;99.90;;;;;;5094864;28;20074;-74
2022/06/01 08:25:18;;;;;;;5.50;1.70;;;12.50;99.90;;;;;;5091996;28;20044;-76
2022/06/01 08:27:45;;;;;;;5.22;1.50;;;12.40;99.90;;;;;;5093821;28;20046;-76
2022/06/01 08:30:12;;;;;;;6.70;2.45;;;12.30;99.90;;;;;;5093449;28;20093;-75
2022/06/01 08:32:38;;;;;;;8.85;3.03;;;12.20;99.90;;;;;;5093461;28;20131;-77
2022/06/01 08:35:05;;;;;;;5.40;2.15;;;12.10;99.90;;;;;;5093941;28;20044;-77
2022/06/01 08:37:31;;;;;;;3.72;1.90;;;11.80;99.90;;;;;;5093468;28;20124;-75
2022/06/01 08:39:57;;;;;;;5.20;1.00;;;11.70;99.90;;;;;;5091641;28;20079;-77
2022/06/01 08:42:24;;;;;;;4.00;1.42;;;11.70;99.90;;;;;;5092246;28;20055;-76
2022/06/01 08:44:51;;;;;;;;;;;11.70;99.90;;;;;;5093840;28;20090;-76
2022/06/01 08:47:26;;;;;;;1.70;0.70;;;12.00;99.90;;;;;;5093768;28;19920;-76
2022/06/01 08:49:56;;;;;;;2.58;0.60;;;12.20;99.90;;;;;;5093332;28;20048;-76
2022/06/01 08:52:23;;;;;;;2.38;0.70;;;12.30;99.90;;;;;;5096376;28;20090;-76
2022/06/01 08:54:49;;;;;;;1.55;0.63;;;12.60;99.90;;;;;;5082183;28;20067;-77
2022/06/01 08:57:28;;;;;;;2.65;0.50;;;12.80;99.90;;;;;;5099078;28;20052;-76
2022/06/01 09:00:14;;;;;;;0.82;0.30;;;13.00;99.90;;;;;;5099274;28;20040;-76
2022/06/01 09:02:52;;;;;;;1.05;0.40;;;13.20;99.90;;;;;;5099478;28;20044;-76
2022/06/01 09:05:37;;;;;;;2.92;0.80;;;13.20;99.90;;;;;;5100058;28;20044;-76
2022/06/01 09:08:32;;;;;;;2.75;0.88;;;13.40;99.90;;;;;;5100466;28;20044;-75
2022/06/01 09:11:17;;;;;;;7.40;3.25;;;13.50;99.90;;;;;;5085196;28;20368;-76
2022/06/01 09:13:58;;;;;;;7.13;3.70;;;13.70;99.90;;;;;;5102364;28;20048;-77
2022/06/01 09:16:38;;;;;;;8.13;3.83;;;13.80;99.90;;;;;;5084410;28;20123;-76
2022/06/01 09:19:07;;;;;;;7.45;4.20;;;13.90;99.90;;;;;;5081074;28;20440;-77
2022/06/01 09:24:33;;;;;;;10.35;6.32;;;14.20;99.90;;;;;;5099338;28;20089;-76
2022/06/01 09:27:02;;;;;;;11.15;5.88;;;14.30;99.90;;;;;;5099007;28;20040;-75
2022/06/01 09:29:32;;;;;;;10.23;6.30;;;14.50;99.90;;;;;;5115907;28;20353;-75
2022/06/01 09:32:04;;;;;;;9.85;6.10;;;14.60;99.90;;;;;;5099785;28;20044;-77
2022/06/01 09:34:50;;;;;;;8.75;4.93;;;14.80;99.90;;;;;;5084997;28;20082;-76
2022/06/01 09:37:34;;;;;;;8.57;5.35;;;14.90;99.90;;;;;;5067384;28;20055;-76
2022/06/01 09:40:04;;;;;;;9.18;5.22;;;14.80;99.90;;;;;;5100271;28;20123;-76
2022/06/01 09:42:35;;;;;;;7.00;3.90;;;14.70;99.90;;;;;;5100521;28;20140;-76
2022/06/01 09:45:04;;;;;;;7.35;3.65;;;14.60;99.90;;;;;;5097721;28;20086;-75
2022/06/01 09:47:43;;;;;;;7.35;4.05;;;14.30;99.90;;;;;;5098265;28;20138;-76
2022/06/01 09:50:32;;;;;;;6.15;3.63;;;14.30;99.90;;;;;;5080183;28;20047;-76
2022/06/01 09:53:20;;;;;;;7.50;3.75;;;14.30;99.90;;;;;;5097226;28;20063;-75
2022/06/01 09:55:57;;;;;;;7.45;4.10;;;14.40;99.90;;;;;;5095787;28;20096;-76
2022/06/01 10:06:57;;;;;;;6.40;2.88;;;14.90;99.90;;;;;;5094844;28;20044;-75
2022/06/01 10:09:26;;;;;;;4.72;2.65;;;15.10;99.90;;;;;;5078977;28;20055;-75
2022/06/01 10:11:54;;;;;;;5.55;2.80;;;15.10;99.90;;;;;;5094675;28;20066;-74
2022/06/01 10:14:34;;;;;;;6.00;2.63;;;15.40;99.90;;;;;;5094877;28;20044;-74
2022/06/01 10:17:27;;;;;;;8.52;3.20;;;15.50;99.90;;;;;;5093991;28;20060;-76
2022/06/01 10:20:17;;;;;;;5.10;2.88;;;15.80;99.90;;;;;;5096212;28;20459;-77
2022/06/01 10:22:56;;;;;;;7.35;2.50;;;16.10;99.90;;;;;;5111572;28;20052;-77
2022/06/01 10:25:37;;;;;;;4.57;2.28;;;16.10;99.90;;;;;;5095036;28;20043;-78
2022/06/01 10:28:12;;;;;;;3.60;1.27;;;16.20;99.90;;;;;;5077033;28;20040;-75
2022/06/01 10:30:43;;;;;;;5.72;1.73;;;16.40;99.90;;;;;;5094156;28;20048;-75
2022/06/01 10:33:20;;;;;;;4.80;2.15;;;16.40;99.90;;;;;;5094273;28;20082;-77
2022/06/01 10:35:58;;;;;;;4.43;2.22;;;16.30;99.90;;;;;;5093605;28;20052;-76
2022/06/01 10:38:42;;;;;;;4.63;2.25;;;16.30;99.90;;;;;;5076249;28;20048;-75
2022/06/01 10:41:18;;;;;;;5.65;2.38;;;16.50;99.90;;;;;;5094111;28;20105;-76
2022/06/01 10:44:02;;;;;;;4.57;2.20;;;16.90;99.90;;;;;;5093985;28;20044;-77
2022/06/01 10:47:05;;;;;;;3.50;2.00;;;17.20;99.90;;;;;;5094778;28;20123;-77
2022/06/01 10:49:51;;;;;;;4.55;2.17;;;17.10;99.90;;;;;;5094622;28;20048;-76
2022/06/01 10:52:43;;;;;;;;;;;16.70;99.90;;;;;;5094900;28;20086;-78
2022/06/01 10:55:17;;;;;;;2.92;1.10;;;16.30;99.90;;;;;;5070038;28;20031;-77
2022/06/01 10:57:46;;;;;;;1.60;0.70;;;15.90;99.90;;;;;;5093468;28;20067;-75
2022/06/01 11:00:18;;;;;;;1.40;0.50;;;15.70;99.90;;;;;;5076660;28;20139;-77
2022/06/01 11:02:56;;;;;;;3.83;1.30;;;15.30;99.40;;;;;;5092429;28;20547;-77
2022/06/01 11:05:48;;;;;;;2.47;0.90;;;15.00;99.90;;;;;;5093328;28;20072;-78
2022/06/01 11:08:38;;;;;;;4.63;1.30;;;14.70;99.90;;;;;;5094255;28;20127;-75
2022/06/01 11:11:22;;;;;;;3.17;1.10;;;14.40;99.90;;;;;;5093711;28;20082;-75
2022/06/01 11:14:13;;;;;;;2.13;0.85;;;14.20;99.90;;;;;;5092771;28;20492;-75
2022/06/01 11:16:45;;;;;;;3.15;1.10;;;14.10;99.90;;;;;;5091692;28;20070;-76
2022/06/01 11:19:17;;;;;;;2.78;1.38;;;14.00;99.90;;;;;;5075226;28;20048;-75
2022/06/01 11:22:00;;;;;;;2.42;1.13;;;13.80;99.90;;;;;;5093484;28;20040;-77
2022/06/01 11:24:47;;;;;;;5.53;1.73;;;14.00;99.90;;;;;;5093781;28;20075;-75
2022/06/01 11:27:16;;;;;;;4.45;1.42;;;14.30;99.90;;;;;;5092155;28;20044;-76
2022/06/01 11:30:12;;;;;;;3.97;1.50;;;14.60;99.90;;;;;;5092075;28;20076;-80
2022/06/01 11:32:38;;;;;;;;;;;15.10;99.90;;;;;;5094427;28;20044;-76
2022/06/01 11:35:14;;;;;;;8.60;1.80;;;15.60;99.90;;;;;;5092325;28;19943;-76
2022/06/01 11:37:46;;;;;;;2.25;1.08;;;16.00;99.90;;;;;;5093131;28;20040;-77
2022/06/01 11:40:23;;;;;;;2.42;0.75;;;16.30;99.90;;;;;;5091909;28;20048;-76
2022/06/01 11:42:59;;;;;;;2.10;0.68;;;16.40;99.90;;;;;;5092311;28;20044;-76
2022/06/01 11:45:32;;;;;;;1.80;0.70;;;16.40;99.90;;;;;;5093174;28;20131;-75
2022/06/01 11:48:10;;;;;;;3.30;0.70;;;16.50;99.90;;;;;;5094165;28;20048;-76
2022/06/01 11:51:02;;;;;;;3.20;0.60;;;16.50;99.90;;;;;;5093729;28;20051;-75
2022/06/01 11:53:34;;;;;;;1.35;0.57;;;16.20;99.00;;;;;;5093229;28;20376;-77
2022/06/01 11:56:14;;;;;;;3.63;0.40;;;16.50;99.90;;;;;;5075862;28;20062;-76
2022/06/01 11:58:47;;;;;;;4.28;0.45;;;16.60;99.00;;;;;;5094708;28;20324;-76
2022/06/01 12:01:41;;;;;;;1.02;0.30;;;16.90;97.90;;;;;;5093820;28;20460;-76
2022/06/01 12:04:13;;;;;;;4.43;0.68;;;17.00;97.60;;;;;;5093171;28;20052;-76
2022/06/01 12:07:06;;;;;;;0.82;0.28;;;17.70;96.90;;;;;;5075212;28;20054;-75
2022/06/01 12:09:44;;;;;;;0.88;0.30;;;17.60;96.50;;;;;;5092177;28;20131;-76
2022/06/01 12:12:44;;;;;;;0.60;0.30;;;17.90;95.40;;;;;;5094082;28;20480;-78
2022/06/01 12:15:13;;;;;;;1.80;0.60;;;18.10;93.50;;;;;;5060391;28;20052;-76
2022/06/01 12:17:39;;;;;;;1.33;0.40;;;17.80;93.30;;;;;;5092787;28;20051;-77
2022/06/01 12:20:34;;;;;;;1.80;0.70;;;17.60;93.40;;;;;;5058247;28;20051;-75
2022/06/01 12:28:54;;;;;;;2.45;0.60;;;17.00;93.90;;;;;;5094205;28;20475;-77
2022/06/01 12:31:34;;;;;;;3.65;0.98;;;17.10;95.70;;;;;;5097642;28;20040;-77
2022/06/01 12:34:41;;;;;;;2.83;1.20;;;17.00;94.50;;;;;;5096831;28;20044;-76
2022/06/01 12:37:24;;;;;;;3.15;1.25;;;17.10;95.40;;;;;;5052095;28;20051;-78
2022/06/01 12:39:57;;;;;;;3.60;1.70;;;17.00;95.20;;;;;;5096317;28;20394;-76
2022/06/01 12:42:43;;;;;;;3.33;1.77;;;17.20;96.80;;;;;;5096682;28;20048;-78
2022/06/01 12:45:16;;;;;;;4.00;1.50;;;17.10;94.60;;;;;;5096849;28;20142;-75
2022/06/01 12:48:06;;;;;;;4.32;1.10;;;17.50;95.60;;;;;;5097067;28;20046;-76
2022/06/01 12:50:46;;;;;;;3.67;1.20;;;17.60;94.40;;;;;;5095723;28;20044;-78
2022/06/01 12:53:22;;;;;;;3.83;1.40;;;17.90;93.50;;;;;;5079346;28;20059;-79
2022/06/01 12:56:04;;;;;;;4.10;1.88;;;18.20;93.30;;;;;;5095660;28;20070;-76
2022/06/01 12:58:30;;;;;;;4.75;1.73;;;18.10;93.20;;;;;;5095627;28;20063;-77
2022/06/01 13:00:56;;;;;;;4.68;1.45;;;18.00;92.90;;;;;;5095566;28;20051;-78
2022/06/01 13:03:26;;;;;;;4.33;1.87;;;18.20;94.20;;;;;;5095917;28;20052;-77
2022/06/01 13:05:56;;;;;;;5.07;1.77;;;18.20;92.50;;;;;;5112651;28;20135;-76
2022/06/01 13:08:25;;;;;;;3.20;1.40;;;18.30;93.10;;;;;;5061078;28;20044;-79
2022/06/01 13:10:51;;;;;;;4.28;1.40;;;18.60;93.30;;;;;;5094843;28;20044;-78
2022/06/01 13:13:27;;;;;;;4.73;1.10;;;18.80;92.40;;;;;;5077542;28;20055;-77
2022/06/01 13:16:00;;;;;;;2.90;1.00;;;18.80;92.10;;;;;;5078331;28;20047;-75
2022/06/01 13:18:35;;;;;;;2.72;1.30;;;18.70;91.00;;;;;;5095820;28;20306;-77
2022/06/01 13:21:36;;;;;;;8.88;2.00;;;18.10;90.10;;;;;;5095053;28;20345;-76
2022/06/01 13:24:06;;;;;;;5.65;2.67;;;17.60;92.20;;;;;;5095458;28;20058;-76
2022/06/01 13:26:34;;;;;;;4.07;2.22;;;17.00;93.30;;;;;;5094401;28;20074;-75
2022/06/01 13:29:22;;;;;;;3.40;2.00;;;17.40;93.20;;;;;;5095631;28;20086;-75
2022/06/01 13:31:51;;;;;;;4.20;1.92;;;16.50;95.00;;;;;;5094789;28;20047;-77
2022/06/01 13:34:38;;;;;;;8.00;2.92;;;16.60;95.30;;;;;;5094196;28;20055;-76